Time;durP1;ratioP1;P1;durP2;ratioP2;P2;SDS_P1;SDS_P2;PMS_P1;PMS_P2;Temp;Humidity;BMP_temperature;BMP_pressure;BME280_temperature;BME280_humidity;BME280_pressure;Samples;Min_cycle;Max_cycle;Signal;HPM_P1;HPM_P2
2023/10/20 00:01:45;;;;;;;;;;;;;;;;;;;;;
2023/10/20 00:07:46;;;;;;;;;0.00;0.00;;;;;16.92;100.00;97713.41;6032498;23;47098;-92
2023/10/20 00:10:57;;;;;;;;;;;;;;;;;;;;;
2023/10/20 00:13:50;;;;;;;;;;;;;;;;;;;;;
2023/10/20 00:34:01;;;;;;;;;;;;;;;;;;;;;
2023/10/20 00:37:38;;;;;;;;;;;;;;;;;;;;;
2023/10/20 00:40:30;;;;;;;;;;;;;;;;;;;;;
2023/10/20 00:43:37;;;;;;;;;;;;;;;;;;;;;
2023/10/20 00:50:00;;;;;;;;;;;;;;;;;;;;;
2023/10/20 00:53:08;;;;;;;;;;;;;;;;;;;;;
2023/10/20 01:13:23;;;;;;;;;;;;;;;;;;;;;
2023/10/20 01:20:05;;;;;;;;;;;;;;;;;;;;;
2023/10/20 01:23:20;;;;;;;;;;;;;;;;;;;;;
2023/10/20 01:26:25;;;;;;;;;;;;;;;;;;;;;
2023/10/20 01:29:50;;;;;;;;;;;;;;;;;;;;;
2023/10/20 01:33:01;;;;;;;;;;;;;;;;;;;;;
2023/10/20 01:36:26;;;;;;;;;;;;;;;;;;;;;
2023/10/20 01:39:51;;;;;;;;;;;;;;;;;;;;;
2023/10/20 01:49:28;;;;;;;;;;;;;;;;;;;;;
2023/10/20 01:52:53;;;;;;;;;;;;;;;;;;;;;
2023/10/20 02:02:12;;;;;;;;;;;;;;;;;;;;;
2023/10/20 02:04:54;;;;;;;;;;;;;;;;;;;;;
2023/10/20 02:10:54;;;;;;;;;;;;;;;;;;;;;
2023/10/20 02:20:25;;;;;;;;;;;;;;;;;;;;;
2023/10/20 02:23:34;;;;;;;;;;;;;;;;;;;;;
2023/10/20 02:26:52;;;;;;;;;;;;;;;;;;;;;
2023/10/20 02:30:12;;;;;;;;;;;;;;;;;;;;;
2023/10/20 02:32:57;;;;;;;;;;;;;;;;;;;;;
2023/10/20 02:41:32;;;;;;;;;;;;;;;;;;;;;
2023/10/20 02:44:07;;;;;;;;;;;;;;;;;;;;;
2023/10/20 02:46:46;;;;;;;;;;;;;;;;;;;;;
2023/10/20 02:49:24;;;;;;;;;;;;;;;;;;;;;
2023/10/20 02:52:18;;;;;;;;;;;;;;;;;;;;;
2023/10/20 02:55:10;;;;;;;;;0.00;0.00;;;;;15.90;100.00;97433.41;6067905;23;73075;-93
2023/10/20 02:57:41;;;;;;;;;0.00;0.00;;;;;15.87;100.00;97431.94;6070363;23;45369;-93
2023/10/20 03:00:21;;;;;;;;;;;;;;;;;;;;;
2023/10/20 03:02:59;;;;;;;;;0.00;0.00;;;;;15.88;100.00;97454.59;6090079;23;75345;-93
2023/10/20 03:05:30;;;;;;;;;0.00;0.00;;;;;15.84;100.00;97456.69;6069404;23;45415;-93
2023/10/20 03:08:04;;;;;;;;;0.00;0.00;;;;;15.83;100.00;97443.72;6105695;22;45299;-93
2023/10/20 03:10:31;;;;;;;;;0.00;0.00;;;;;15.84;100.00;97432.25;6255423;22;45309;-94
2023/10/20 03:13:04;;;;;;;;;0.00;0.00;;;;;15.79;100.00;97427.50;6279954;22;46364;-93
2023/10/20 03:15:41;;;;;;;;;0.00;0.00;;;;;15.79;100.00;97435.38;6281752;22;45274;-93
2023/10/20 03:18:16;;;;;;;;;;;;;;;;;;;;;
2023/10/20 03:20:47;;;;;;;;;0.00;0.00;;;;;15.74;100.00;97436.81;6306297;22;68041;-94
2023/10/20 03:23:14;;;;;;;;;0.00;0.00;;;;;15.72;100.00;97438.75;6259275;22;47095;-95
2023/10/20 03:25:42;;;;;;;;;0.00;0.00;;;;;15.68;100.00;97431.19;6306697;22;45344;-96
2023/10/20 03:28:15;;;;;;;;;0.00;0.00;;;;;15.67;100.00;97421.69;6337082;22;45338;-96
2023/10/20 03:30:43;;;;;;;;;0.00;0.00;;;;;15.67;100.00;97408.59;6364534;22;45402;-95
2023/10/20 03:33:23;;;;;;;;;;;;;;;;;;;;;
2023/10/20 03:35:58;;;;;;;;;0.00;0.00;;;;;15.68;100.00;97386.59;6318159;22;72248;-95
2023/10/20 03:38:24;;;;;;;;;0.00;0.00;;;;;15.68;100.00;97391.03;6339844;22;45214;-95
2023/10/20 03:41:05;;;;;;;;;;;;;;;;;;;;;
2023/10/20 03:43:31;;;;;;;;;0.00;0.00;;;;;15.71;100.00;97397.75;6334017;22;76284;-93
2023/10/20 03:45:56;;;;;;;;;0.00;0.00;;;;;15.65;100.00;97386.91;6336745;22;48706;-94
2023/10/20 03:48:29;;;;;;;;;0.00;0.00;;;;;15.70;100.00;97375.16;6311224;22;45312;-94
2023/10/20 03:51:00;;;;;;;;;0.00;0.00;;;;;15.67;100.00;97386.75;6310409;22;45431;-95
2023/10/20 03:53:42;;;;;;;;;;;;;;;;;;;;;
2023/10/20 03:56:13;;;;;;;;;0.00;0.00;;;;;15.63;100.00;97417.72;6313740;22;71746;-94
2023/10/20 03:58:48;;;;;;;;;0.00;0.00;;;;;15.60;100.00;97404.09;6310909;22;45289;-93
2023/10/20 04:01:16;;;;;;;;;0.00;0.00;;;;;15.58;100.00;97420.00;6312655;22;45483;-93
2023/10/20 04:03:49;;;;;;;;;0.00;0.00;;;;;15.60;100.00;97418.06;6284740;22;47410;-95
2023/10/20 04:06:16;;;;;;;;;0.00;0.00;;;;;15.61;100.00;97439.84;6286289;22;46024;-94
2023/10/20 04:08:47;;;;;;;;;0.00;0.00;;;;;15.58;100.00;97455.88;6311252;22;45330;-94
2023/10/20 04:11:27;;;;;;;;;;;;;;;;;;;;;
2023/10/20 04:13:56;;;;;;;;;0.00;0.00;;;;;15.52;100.00;97446.84;6337028;22;73963;-95
2023/10/20 04:16:23;;;;;;;;;0.00;0.00;;;;;15.49;100.00;97450.59;6310654;22;45466;-95
2023/10/20 04:19:01;;;;;;;;;;;;;;;;;;;;;
2023/10/20 04:21:34;;;;;;;;;0.00;0.00;;;;;15.42;100.00;97461.88;6308688;22;70595;-95
2023/10/20 04:24:08;;;;;;;;;0.00;0.00;;;;;15.35;100.00;97448.53;6337652;22;46419;-95
2023/10/20 04:27:02;;;;;;;;;;;;;;;;;;;;;
2023/10/20 04:29:47;;;;;;;;;;;;;;;;;;;;;
2023/10/20 04:51:45;;;;;;;;;0.00;0.00;;;;;14.99;100.00;97476.63;6306152;22;45332;-94
2023/10/20 05:03:31;;;;;;;;;0.00;0.00;;;;;14.86;100.00;97505.84;6212713;22;45315;-93
2023/10/20 05:10:55;;;;;;;;;0.00;0.00;;;;;14.85;100.00;97505.00;6181197;23;45438;-92
2023/10/20 05:13:32;;;;;;;;;0.00;0.00;;;;;14.87;100.00;97507.47;6184875;23;45504;-95
2023/10/20 05:16:16;;;;;;;;;0.00;0.00;;;;;14.86;100.00;97508.44;6181410;23;45295;-93
2023/10/20 05:18:44;;;;;;;;;0.00;0.00;;;;;14.90;100.00;97517.66;6154411;23;45383;-92
2023/10/20 05:21:13;;;;;;;;;0.00;0.00;;;;;14.91;100.00;97511.41;6155515;23;45402;-93
2023/10/20 05:23:49;;;;;;;;;;;;;;;;;;;;;
2023/10/20 05:26:17;;;;;;;;;0.00;0.00;;;;;14.91;100.00;97511.41;6178444;23;70539;-93
2023/10/20 05:28:45;;;;;;;;;0.00;0.00;;;;;14.90;100.00;97500.13;6131668;23;48066;-93
2023/10/20 05:31:42;;;;;;;;;0.00;0.00;;;;;14.94;100.00;97499.84;6185102;22;45237;-90
2023/10/20 05:34:13;;;;;;;;;;;;;;;;;;;;;
2023/10/20 05:36:41;;;;;;;;;0.00;0.00;;;;;14.92;100.00;97496.56;6212981;22;68660;-92
2023/10/20 05:39:26;;;;;;;;;;;;;;;;;;;;;
2023/10/20 05:41:52;;;;;;;;;0.00;0.00;;;;;14.84;100.00;97465.84;6215873;22;73028;-85
2023/10/20 05:44:22;;;;;;;;;0.00;0.00;;;;;14.79;100.00;97461.09;6213935;22;45622;-86
2023/10/20 05:46:50;;;;;;;;;0.00;0.00;;;;;14.84;100.00;97465.84;6216952;22;45438;-86
2023/10/20 05:49:25;;;;;;;;;;;;;;;;;;;;;
2023/10/20 05:51:56;;;;;;;;;0.00;0.00;;;;;14.80;100.00;97467.97;6278100;22;72890;-87
2023/10/20 05:54:30;;;;;;;;;0.00;0.00;;;;;14.75;100.00;97461.56;6305395;22;45336;-91
2023/10/20 05:57:05;;;;;;;;;;;;;;;;;;;;;
2023/10/20 05:59:44;;;;;;;;;;;;;;;;;;;;;
2023/10/20 06:02:13;;;;;;;;;0.00;0.00;;;;;14.76;100.00;97476.28;6276478;22;73049;-89
2023/10/20 06:04:56;;;;;;;;;0.00;0.00;;;;;14.75;100.00;97464.19;6305678;22;45304;-88
2023/10/20 06:07:32;;;;;;;;;0.00;0.00;;;;;14.79;100.00;97475.97;6276761;22;45124;-88
2023/10/20 06:10:03;;;;;;;;;0.00;0.00;;;;;14.83;100.00;97493.84;6303731;22;45385;-94
2023/10/20 06:12:41;;;;;;;;;0.00;0.00;;;;;14.78;100.00;97487.41;6303998;22;45285;-87
2023/10/20 06:15:22;;;;;;;;;0.00;0.00;;;;;14.79;100.00;97497.75;6303663;22;45268;-87
2023/10/20 06:17:54;;;;;;;;;0.00;0.00;;;;;14.86;100.00;97504.03;6302359;22;45358;-85
2023/10/20 06:20:20;;;;;;;;;0.00;0.00;;;;;14.86;100.00;97488.31;6277803;22;45330;-86
2023/10/20 06:22:45;;;;;;;;;0.00;0.00;;;;;14.92;100.00;97505.22;6303301;22;45325;-85
2023/10/20 06:25:14;;;;;;;;;0.00;0.00;;;;;14.94;100.00;97500.66;6304020;22;45412;-86
2023/10/20 06:27:41;;;;;;;;;0.00;0.00;;;;;14.98;100.00;97506.41;6334611;22;45505;-86
2023/10/20 06:30:14;;;;;;;;;0.00;0.00;;;;;14.99;100.00;97500.19;6306210;22;45989;-84
2023/10/20 06:32:42;;;;;;;;;0.00;0.00;;;;;14.97;100.00;97495.13;6334679;22;45269;-84
2023/10/20 06:35:16;;;;;;;;;0.00;0.00;;;;;14.99;100.00;97508.88;6334936;22;45456;-84
2023/10/20 06:40:15;;;;;;;;;0.00;0.00;;;;;14.99;100.00;97481.84;6308574;22;45301;-83
2023/10/20 06:42:43;;;;;;;;;0.00;0.00;;;;;14.98;100.00;97485.47;6308451;22;45702;-83
2023/10/20 06:45:10;;;;;;;;;0.00;0.00;;;;;15.00;100.00;97499.22;6307691;22;45369;-83
2023/10/20 06:47:35;;;;;;;;;0.00;0.00;;;;;14.93;100.00;97485.91;6336269;22;45328;-84
2023/10/20 06:50:01;;;;;;;;;0.00;0.00;;;;;14.88;100.00;97477.69;6308420;22;46238;-84
2023/10/20 06:52:26;;;;;;;;;0.00;0.00;;;;;14.94;100.00;97478.88;6308185;22;61422;-84
2023/10/20 06:54:51;;;;;;;;;0.00;0.00;;;;;14.92;100.00;97484.28;6333804;22;45332;-83
2023/10/20 06:57:19;;;;;;;;;0.00;0.00;;;;;14.90;100.00;97491.47;6335374;22;60303;-84
2023/10/20 06:59:45;;;;;;;;;0.00;0.00;;;;;14.91;100.00;97508.81;6307854;22;46379;-84
2023/10/20 07:02:10;;;;;;;;;1.00;1.00;;;;;14.92;100.00;97515.69;6308465;22;54214;-84
2023/10/20 07:04:36;;;;;;;;;0.00;0.00;;;;;14.89;100.00;97513.38;6308571;22;45317;-84
2023/10/20 07:07:01;;;;;;;;;0.00;0.00;;;;;14.95;100.00;97525.03;6308830;22;45418;-84
2023/10/20 07:09:26;;;;;;;;;0.00;0.00;;;;;14.92;100.00;97526.19;6335715;22;46890;-84
2023/10/20 07:11:52;;;;;;;;;0.00;0.00;;;;;14.97;100.00;97525.72;6282371;22;45242;-84
2023/10/20 07:14:17;;;;;;;;;0.00;0.00;;;;;15.04;100.00;97539.84;6307632;22;47605;-84
2023/10/20 07:16:43;;;;;;;;;0.00;0.00;;;;;15.00;100.00;97522.78;6335691;22;58183;-83
2023/10/20 07:19:09;;;;;;;;;0.00;0.00;;;;;15.04;100.00;97530.22;6335710;22;46781;-84
2023/10/20 07:21:34;;;;;;;;;0.00;0.00;;;;;15.08;100.00;97533.31;6282446;22;45358;-83
2023/10/20 07:24:02;;;;;;;;;0.00;0.00;;;;;15.05;100.00;97529.22;6308287;22;45337;-84
2023/10/20 07:26:28;;;;;;;;;0.00;0.00;;;;;15.05;100.00;97534.47;6336846;22;45271;-83
2023/10/20 07:28:54;;;;;;;;;0.00;0.00;;;;;15.05;100.00;97538.88;6335566;22;45853;-84
2023/10/20 07:31:21;;;;;;;;;0.00;0.00;;;;;15.04;100.00;97539.84;6308475;22;45224;-84
2023/10/20 07:33:47;;;;;;;;;0.00;0.00;;;;;14.99;100.00;97527.22;6308619;22;45314;-84
2023/10/20 07:36:12;;;;;;;;;0.00;0.00;;;;;14.98;100.00;97529.97;6334891;22;45287;-83
2023/10/20 07:38:38;;;;;;;;;0.00;0.00;;;;;15.05;100.00;97531.84;6307764;22;45932;-81
2023/10/20 07:41:06;;;;;;;;;3.00;3.00;;;;;15.08;100.00;97546.44;6308610;22;45330;-82
2023/10/20 07:43:32;;;;;;;;;0.00;0.00;;;;;15.13;100.00;97538.13;6335907;22;45308;-82
2023/10/20 07:45:57;;;;;;;;;0.00;0.00;;;;;15.18;100.00;97543.75;6308000;22;45280;-84
2023/10/20 07:48:22;;;;;;;;;0.67;0.00;;;;;15.19;100.00;97561.09;6307489;22;64916;-84
2023/10/20 07:50:48;;;;;;;;;0.00;0.00;;;;;15.22;100.00;97560.81;6306927;22;57535;-83
2023/10/20 07:53:14;;;;;;;;;0.00;0.00;;;;;15.23;100.00;97570.28;6305442;22;57040;-83
2023/10/20 07:55:39;;;;;;;;;0.00;0.00;;;;;15.23;100.00;97572.91;6331918;22;45474;-84
2023/10/20 07:58:04;;;;;;;;;0.00;0.00;;;;;15.22;100.00;97572.09;6306538;22;68288;-82
2023/10/20 08:00:30;;;;;;;;;0.00;0.00;;;;;15.32;100.00;97577.25;6307217;22;45258;-82
2023/10/20 08:02:55;;;;;;;;;0.00;0.00;;;;;15.39;100.00;97567.81;6304716;22;50598;-82
2023/10/20 08:05:24;;;;;;;;;0.00;0.00;;;;;15.47;100.00;97588.00;6330335;22;45598;-83
2023/10/20 08:07:50;;;;;;;;;0.00;0.00;;;;;15.48;100.00;97574.75;6307330;22;45477;-82
2023/10/20 08:10:15;;;;;;;;;0.00;0.00;;;;;15.53;100.00;97574.31;6307309;22;55509;-82
2023/10/20 08:12:40;;;;;;;;;0.00;0.00;;;;;15.49;100.00;97575.59;6307570;22;49632;-82
2023/10/20 08:15:06;;;;;;;;;0.00;0.00;;;;;15.47;100.00;97595.88;6334738;22;57390;-83
2023/10/20 08:17:32;;;;;;;;;0.00;0.00;;;;;15.42;100.00;97593.72;6307324;22;46861;-82
2023/10/20 08:19:59;;;;;;;;;0.00;0.00;;;;;15.42;100.00;97598.16;6307411;22;45468;-83
2023/10/20 08:22:24;;;;;;;;;0.00;0.00;;;;;15.48;100.00;97595.72;6334233;22;45497;-83
2023/10/20 08:24:51;;;;;;;;;0.00;0.00;;;;;15.48;100.00;97597.53;6307351;22;56058;-85
2023/10/20 08:27:18;;;;;;;;;0.00;0.00;;;;;15.50;100.00;97611.31;6307055;22;46262;-83
2023/10/20 08:29:46;;;;;;;;;0.00;0.00;;;;;15.53;100.00;97610.19;6335762;22;45394;-85
2023/10/20 08:32:12;;;;;;;;;0.00;0.00;;;;;15.52;100.00;97605.91;6281668;22;45405;-85
2023/10/20 08:34:37;;;;;;;;;0.00;0.00;;;;;15.59;100.00;97599.09;6335160;22;45307;-85
2023/10/20 08:37:03;;;;;;;;;0.00;0.00;;;;;15.71;100.00;97608.34;6307706;22;47021;-85
2023/10/20 08:39:28;;;;;;;;;0.00;0.00;;;;;15.82;100.00;97599.44;6305937;22;45401;-85
2023/10/20 08:41:54;;;;;;;;;0.00;0.00;;;;;15.92;100.00;97601.97;6307396;22;45246;-86
2023/10/20 08:44:20;;;;;;;;;0.00;0.00;;;;;15.95;100.00;97610.31;6307632;22;45214;-82
2023/10/20 08:46:45;;;;;;;;;0.00;0.00;;;;;16.02;100.00;97619.22;6307589;22;45258;-83
2023/10/20 08:49:11;;;;;;;;;0.00;0.00;;;;;16.06;100.00;97615.34;6307288;22;45303;-82
2023/10/20 08:51:38;;;;;;;;;0.00;0.00;;;;;16.15;100.00;97602.25;6307532;22;45282;-83
2023/10/20 08:54:06;;;;;;;;;0.00;0.00;;;;;16.20;100.00;97620.97;6306922;22;45325;-83
2023/10/20 08:56:32;;;;;;;;;0.00;0.00;;;;;16.18;100.00;97608.00;6335497;22;45438;-83
2023/10/20 08:58:58;;;;;;;;;0.00;0.00;;;;;16.19;100.00;97607.00;6308300;22;45314;-83
2023/10/20 09:01:23;;;;;;;;;0.00;0.00;;;;;16.25;100.00;97616.91;6332974;22;45312;-82
2023/10/20 09:03:49;;;;;;;;;1.00;0.00;;;;;16.25;100.00;97616.06;6306554;22;62164;-82
2023/10/20 09:06:15;;;;;;;;;0.00;0.00;;;;;16.28;100.00;97628.88;6306895;22;46572;-83
2023/10/20 09:08:47;;;;;;;;;0.00;0.00;;;;;16.25;100.00;97623.94;6306685;22;45294;-82
2023/10/20 09:11:12;;;;;;;;;0.00;0.00;;;;;16.25;100.00;97629.19;6335785;22;45391;-84
2023/10/20 09:13:40;;;;;;;;;0.00;0.00;;;;;16.15;100.00;97633.72;6335610;22;45324;-83
2023/10/20 09:16:07;;;;;;;;;0.00;0.00;;;;;16.10;100.00;97636.00;6333394;22;46629;-84
2023/10/20 09:18:50;;;;;;;;;0.00;0.00;;;;;16.05;100.00;97641.72;6306781;22;45668;-83
2023/10/20 09:21:19;;;;;;;;;0.00;0.00;;;;;16.04;100.00;97637.44;6307552;22;45241;-83
2023/10/20 09:23:54;;;;;;;;;0.00;0.00;;;;;16.06;100.00;97638.94;6334702;22;45325;-84
2023/10/20 09:26:20;;;;;;;;;0.00;0.00;;;;;16.06;100.00;97640.72;6306711;22;46208;-84
2023/10/20 09:28:50;;;;;;;;;0.00;0.00;;;;;16.07;100.00;97639.75;6335251;22;45290;-83
2023/10/20 09:31:17;;;;;;;;;0.00;0.00;;;;;16.08;100.00;97636.16;6335221;22;45312;-83
2023/10/20 09:33:43;;;;;;;;;0.00;0.00;;;;;16.22;100.00;97642.63;6334946;22;45555;-84
2023/10/20 09:36:11;;;;;;;;;0.00;0.00;;;;;16.35;100.00;97643.03;6334751;22;46978;-84
2023/10/20 09:38:37;;;;;;;;;0.00;0.00;;;;;16.49;100.00;97648.66;6305359;22;45373;-83
2023/10/20 09:41:11;;;;;;;;;0.00;0.00;;;;;16.54;100.00;97652.47;6307679;22;45316;-83
2023/10/20 09:43:40;;;;;;;;;0.00;0.00;;;;;16.66;100.00;97653.03;6307961;22;45301;-84
2023/10/20 09:46:33;;;;;;;;;0.00;0.00;;;;;16.78;100.00;97654.34;6335199;22;45284;-84
2023/10/20 09:49:00;;;;;;;;;0.00;0.00;;;;;16.91;100.00;97651.31;6336128;22;45426;-84
2023/10/20 09:51:27;;;;;;;;;0.00;0.00;;;;;17.02;100.00;97647.56;6335408;22;45277;-83
2023/10/20 09:53:56;;;;;;;;;0.00;0.00;;;;;17.11;100.00;97651.03;6307494;22;45237;-84
2023/10/20 09:56:22;;;;;;;;;0.00;0.00;;;;;17.17;100.00;97650.38;6308205;22;45561;-84
2023/10/20 09:58:47;;;;;;;;;0.00;0.00;;;;;17.18;100.00;97654.69;6307809;22;45353;-83
2023/10/20 10:01:13;;;;;;;;;0.00;0.00;;;;;17.18;100.00;97668.63;6335693;22;45352;-83
2023/10/20 10:03:42;;;;;;;;;0.00;0.00;;;;;17.22;100.00;97669.94;6307156;22;45334;-84
2023/10/20 10:06:13;;;;;;;;;0.00;0.00;;;;;17.30;100.00;97677.03;6333471;22;48383;-83
2023/10/20 10:08:43;;;;;;;;;0.00;0.00;;;;;17.35;100.00;97679.19;6306923;22;45344;-82
2023/10/20 10:11:29;;;;;;;;;0.00;0.00;;;;;17.42;100.00;97685.41;6334835;22;45296;-85
2023/10/20 10:13:58;;;;;;;;;0.00;0.00;;;;;17.51;100.00;97687.06;6333482;22;45314;-84
2023/10/20 10:16:26;;;;;;;;;0.00;0.00;;;;;17.62;100.00;97678.03;6336721;22;45529;-85
2023/10/20 10:18:54;;;;;;;;;0.00;0.00;;;;;17.65;100.00;97677.72;6282289;22;45439;-84
2023/10/20 10:21:24;;;;;;;;;0.00;0.00;;;;;17.71;100.00;97686.75;6335890;22;45395;-84
2023/10/20 10:24:18;;;;;;;;;0.00;0.00;;;;;17.61;100.00;97693.00;6308955;22;45464;-82
2023/10/20 10:26:57;;;;;;;;;0.00;0.00;;;;;17.44;100.00;97696.59;6308017;22;47554;-83
2023/10/20 10:29:50;;;;;;;;;0.00;0.00;;;;;17.21;100.00;97702.47;6308881;22;45250;-84
2023/10/20 10:32:20;;;;;;;;;0.00;0.00;;;;;17.01;100.00;97694.06;6335678;22;45179;-83
2023/10/20 10:34:56;;;;;;;;;0.00;0.00;;;;;16.87;100.00;97694.66;6335894;22;45354;-85
2023/10/20 10:37:34;;;;;;;;;0.00;0.00;;;;;16.80;100.00;97697.03;6335064;22;45587;-84
2023/10/20 10:40:13;;;;;;;;;0.00;0.00;;;;;16.73;100.00;97695.22;6307287;22;45665;-86
2023/10/20 10:42:46;;;;;;;;;0.00;0.00;;;;;16.76;100.00;97694.91;6335020;22;45375;-86
2023/10/20 10:45:22;;;;;;;;;0.00;0.00;;;;;16.77;100.00;97693.91;6336017;22;45268;-85
2023/10/20 10:47:49;;;;;;;;;0.00;0.00;;;;;16.73;100.00;97687.34;6308971;22;46967;-87
2023/10/20 10:50:20;;;;;;;;;0.00;0.00;;;;;16.73;100.00;97692.59;6307152;22;45264;-89
2023/10/20 10:52:46;;;;;;;;;0.00;0.00;;;;;16.75;100.00;97688.84;6335168;22;45249;-87
2023/10/20 10:55:15;;;;;;;;;0.00;0.00;;;;;16.73;100.00;97692.59;6333128;22;45791;-88
2023/10/20 10:57:43;;;;;;;;;0.00;0.00;;;;;16.80;100.00;97702.28;6334948;22;46464;-84
2023/10/20 11:00:09;;;;;;;;;0.00;0.00;;;;;16.87;100.00;97705.16;6308387;22;45481;-89
2023/10/20 11:02:35;;;;;;;;;0.00;0.00;;;;;16.97;100.00;97703.22;6307128;22;45370;-84
2023/10/20 11:05:06;;;;;;;;;0.00;0.00;;;;;17.15;100.00;97697.84;6281732;22;45442;-87
2023/10/20 11:07:34;;;;;;;;;0.00;0.00;;;;;17.44;100.00;97703.66;6308372;22;47231;-86
2023/10/20 11:10:06;;;;;;;;;0.00;0.00;;;;;17.70;100.00;97693.84;6308444;22;45207;-88
2023/10/20 11:12:44;;;;;;;;;;;;;;;;;;;;;
2023/10/20 11:15:09;;;;;;;;;0.00;0.00;;;;;18.26;100.00;97709.78;6329857;22;71079;-92
2023/10/20 11:17:47;;;;;;;;;;;;;;;;;;;;;
2023/10/20 11:20:27;;;;;;;;;;;;;;;;;;;;;
2023/10/20 11:23:07;;;;;;;;;;;;;;;;;;;;;
2023/10/20 11:26:23;;;;;;;;;;;;;;;;;;;;;
2023/10/20 11:32:18;;;;;;;;;;;;;;;;;;;;;
2023/10/20 11:37:59;;;;;;;;;0.00;0.00;;;;;17.71;100.00;97682.31;6167580;23;45375;-87
2023/10/20 11:41:09;;;;;;;;;;;;;;;;;;;;;
2023/10/20 11:44:13;;;;;;;;;;;;;;;;;;;;;
2023/10/20 11:46:49;;;;;;;;;;;;;;;;;;;;;
2023/10/20 11:49:45;;;;;;;;;;;;;;;;;;;;;
2023/10/20 11:52:26;;;;;;;;;;;;;;;;;;;;;
2023/10/20 11:55:28;;;;;;;;;0.00;0.00;;;;;21.86;100.00;97685.69;6174377;23;72353;-90
2023/10/20 11:58:30;;;;;;;;;0.00;0.00;;;;;24.05;100.00;97695.63;6180807;23;45360;-93
2023/10/20 12:01:13;;;;;;;;;;;;;;;;;;;;;
2023/10/20 12:03:41;;;;;;;;;0.00;0.00;;;;;23.79;100.00;97693.75;6172582;23;74883;-89
2023/10/20 12:06:42;;;;;;;;;;;;;;;;;;;;;
2023/10/20 12:12:45;;;;;;;;;;;;;;;;;;;;;
2023/10/20 12:15:31;;;;;;;;;0.00;0.00;;;;;21.46;100.00;97694.06;6282074;22;76189;-90
2023/10/20 12:18:47;;;;;;;;;;;;;;;;;;;;;
2023/10/20 12:21:22;;;;;;;;;;;;;;;;;;;;;
2023/10/20 12:24:59;;;;;;;;;;;;;;;;;;;;;
2023/10/20 12:34:43;;;;;;;;;;;;;;;;;;;;;
2023/10/20 12:47:08;;;;;;;;;;;;;;;;;;;;;
2023/10/20 12:53:25;;;;;;;;;0.00;0.00;;;;;34.50;60.04;97666.50;6118401;23;47177;-87
2023/10/20 12:56:25;;;;;;;;;;;;;;;;;;;;;
2023/10/20 12:59:44;;;;;;;;;;;;;;;;;;;;;
2023/10/20 13:02:49;;;;;;;;;;;;;;;;;;;;;
2023/10/20 13:05:52;;;;;;;;;;;;;;;;;;;;;
2023/10/20 13:09:06;;;;;;;;;0.00;0.00;;;;;40.59;42.07;97670.34;6030609;23;72955;-89
2023/10/20 13:11:47;;;;;;;;;0.00;0.00;;;;;38.59;39.31;97676.97;6023185;23;45561;-89
2023/10/20 13:15:04;;;;;;;;;;;;;;;;;;;;;
2023/10/20 13:18:22;;;;;;;;;;;;;;;;;;;;;
2023/10/20 13:20:50;;;;;;;;;0.00;0.00;;;;;31.82;51.16;97668.72;6197062;22;45423;-88
2023/10/20 13:33:34;;;;;;;;;0.00;0.00;;;;;31.56;56.34;97668.50;6031118;23;45387;-87
2023/10/20 13:36:04;;;;;;;;;0.00;0.00;;;;;33.38;58.27;97661.97;6057198;23;45402;-87
2023/10/20 13:39:02;;;;;;;;;0.00;0.00;;;;;34.11;57.35;97666.31;6060129;23;45393;-88
2023/10/20 13:41:45;;;;;;;;;0.00;0.00;;;;;33.94;54.13;97656.59;6059890;23;47122;-88
2023/10/20 13:44:16;;;;;;;;;0.00;0.00;;;;;35.01;55.76;97659.28;6056353;23;45307;-87
2023/10/20 13:47:04;;;;;;;;;0.00;0.00;;;;;35.24;48.54;97663.25;6059207;23;45436;-88
2023/10/20 13:52:52;;;;;;;;;0.00;0.00;;;;;36.32;45.53;97682.16;5972967;23;46845;-87
2023/10/20 13:55:44;;;;;;;;;0.00;0.00;;;;;33.52;48.70;97673.03;5973283;23;45436;-87
2023/10/20 13:58:21;;;;;;;;;0.00;0.00;;;;;30.93;51.07;97675.34;5972605;23;45602;-87
2023/10/20 14:03:54;;;;;;;;;;;;;;;;;;;;;
2023/10/20 14:06:27;;;;;;;;;0.00;0.00;;;;;26.76;64.66;97678.56;5956021;23;71556;-86
2023/10/20 14:09:04;;;;;;;;;0.00;0.00;;;;;26.77;70.78;97675.66;5977602;23;45306;-87
2023/10/20 14:11:34;;;;;;;;;0.00;0.00;;;;;28.86;64.96;97664.19;6094182;23;45252;-87
2023/10/20 14:14:33;;;;;;;;;;;;;;;;;;;;;
2023/10/20 14:17:06;;;;;;;;;0.00;0.00;;;;;30.46;57.95;97666.69;6130618;23;71621;-86
2023/10/20 14:19:45;;;;;;;;;0.00;0.00;;;;;31.36;61.78;97674.44;6176570;23;45375;-87
2023/10/20 14:22:38;;;;;;;;;;;;;;;;;;;;;
2023/10/20 14:25:37;;;;;;;;;;;;;;;;;;;;;
2023/10/20 14:28:23;;;;;;;;;;;;;;;;;;;;;
2023/10/20 14:31:39;;;;;;;;;0.00;0.00;;;;;32.92;51.31;97668.03;6272937;22;67689;-88
2023/10/20 14:34:38;;;;;;;;;0.00;0.00;;;;;33.80;47.92;97668.22;6176937;23;45372;-88
2023/10/20 14:37:22;;;;;;;;;0.00;0.00;;;;;35.19;50.59;97674.88;6161347;23;45491;-88
2023/10/20 14:39:52;;;;;;;;;0.00;0.00;;;;;35.63;46.01;97673.25;6177152;23;45379;-88
2023/10/20 14:42:41;;;;;;;;;0.00;0.00;;;;;35.97;43.51;97675.97;6177466;23;45685;-88
2023/10/20 14:45:39;;;;;;;;;;;;;;;;;;;;;
2023/10/20 14:48:44;;;;;;;;;;;;;;;;;;;;;
2023/10/20 14:52:29;;;;;;;;;;;;;;;;;;;;;
2023/10/20 14:54:45;;;;;;;;;0.00;0.00;;;;;38.39;40.99;97676.22;6090894;23;45560;-88
2023/10/20 14:57:11;;;;;;;;;0.00;0.00;;;;;37.01;44.65;97685.41;6092882;23;45682;-88
2023/10/20 14:59:46;;;;;;;;;3.00;3.00;;;;;34.59;47.98;97688.34;6092846;23;46373;-87
2023/10/20 15:02:24;;;;;;;;;0.00;0.00;;;;;32.08;48.79;97682.38;6119325;23;45327;-87
2023/10/20 15:04:51;;;;;;;;;0.00;0.00;;;;;30.20;51.77;97681.59;6117466;23;45735;-87
2023/10/20 15:07:17;;;;;;;;;0.00;0.00;;;;;28.82;56.43;97677.22;6118813;23;45383;-87
2023/10/20 15:10:02;;;;;;;;;;;;;;;;;;;;;
2023/10/20 15:12:33;;;;;;;;;0.00;0.00;;;;;26.80;65.99;97671.72;6215384;22;71556;-88
2023/10/20 15:15:31;;;;;;;;;0.00;0.00;;;;;26.07;70.39;97666.09;6241044;22;45566;-87
2023/10/20 15:21:28;;;;;;;;;0.00;0.00;;;;;25.10;80.86;97684.94;6204136;22;46391;-88
2023/10/20 15:24:03;;;;;;;;;0.00;0.00;;;;;24.79;87.01;97674.22;6205011;22;45608;-89
2023/10/20 15:27:37;;;;;;;;;;;;;;;;;;;;;
2023/10/20 15:40:24;;;;;;;;;0.00;0.00;;;;;22.88;100.00;97689.63;6129339;23;45278;-93
2023/10/20 15:42:52;;;;;;;;;0.00;0.00;;;;;22.63;100.00;97677.88;6149131;23;45245;-88
2023/10/20 15:45:17;;;;;;;;;0.00;0.00;;;;;22.42;100.00;97685.72;6123883;23;46040;-88
2023/10/20 15:47:47;;;;;;;;;0.00;0.00;;;;;22.30;100.00;97697.03;6124476;23;45288;-90
2023/10/20 15:50:33;;;;;;;;;;;;;;;;;;;;;
2023/10/20 15:53:28;;;;;;;;;0.00;0.00;;;;;21.81;100.00;97682.78;6128064;23;70044;-90
2023/10/20 16:05:59;;;;;;;;;0.00;0.00;;;;;20.83;100.00;97683.16;6189894;22;45473;-89
2023/10/20 16:08:42;;;;;;;;;0.00;0.00;;;;;20.75;100.00;97696.47;6208683;22;46578;-87
2023/10/20 16:11:15;;;;;;;;;0.00;0.00;;;;;20.56;100.00;97691.72;6281022;22;45455;-88
2023/10/20 16:13:53;;;;;;;;;0.00;0.00;;;;;20.49;100.00;97697.72;6282871;22;53606;-93
2023/10/20 16:27:17;;;;;;;;;;;;;;;;;;;;;
2023/10/20 16:37:01;;;;;;;;;0.00;0.00;;;;;19.41;100.00;97693.53;6144810;22;45274;-90
2023/10/20 16:39:50;;;;;;;;;0.00;0.00;;;;;19.29;100.00;97693.09;6150461;23;45307;-91
2023/10/20 16:42:17;;;;;;;;;0.00;0.00;;;;;19.21;100.00;97703.69;6149413;23;45816;-87
2023/10/20 16:45:50;;;;;;;;;0.00;0.00;;;;;19.08;100.00;97700.81;6128011;23;46225;-96
2023/10/20 16:48:22;;;;;;;;;0.00;0.00;;;;;19.02;100.00;97707.59;6120361;23;45339;-92
2023/10/20 16:50:58;;;;;;;;;0.00;0.00;;;;;18.85;100.00;97704.22;6123423;23;45660;-89
2023/10/20 16:54:02;;;;;;;;;;;;;;;;;;;;;
2023/10/20 16:57:14;;;;;;;;;;;;;;;;;;;;;
2023/10/20 16:59:49;;;;;;;;;;;;;;;;;;;;;
2023/10/20 17:02:46;;;;;;;;;0.00;0.00;;;;;18.59;100.00;97714.97;6185704;22;69032;-88
2023/10/20 17:05:19;;;;;;;;;0.00;0.00;;;;;18.46;100.00;97707.59;6089909;23;45456;-89
2023/10/20 17:08:04;;;;;;;;;0.00;0.00;;;;;18.45;100.00;97719.13;6064760;23;46084;-87
2023/10/20 17:11:03;;;;;;;;;0.00;0.00;;;;;18.39;100.00;97719.81;6090243;23;45278;-89
2023/10/20 17:13:41;;;;;;;;;0.00;0.00;;;;;18.34;100.00;97717.66;6034168;23;45358;-88
2023/10/20 17:26:45;;;;;;;;;0.00;0.00;;;;;18.17;100.00;97721.31;5811976;24;45435;-93
2023/10/20 17:30:04;;;;;;;;;0.00;0.00;;;;;18.15;100.00;97731.19;5786685;24;45438;-93
2023/10/20 17:48:57;;;;;;;;;0.00;0.00;;;;;17.91;100.00;97761.78;6346925;22;45428;-90
2023/10/20 18:13:16;;;;;;;;;0.00;0.00;;;;;17.31;100.00;97811.91;6355370;22;45104;-90
2023/10/20 18:15:42;;;;;;;;;0.00;0.00;;;;;17.28;100.00;97833.28;6348057;22;45448;-86
2023/10/20 18:18:07;;;;;;;;;0.00;0.00;;;;;17.16;100.00;97827.44;6347650;22;47202;-84
2023/10/20 18:20:32;;;;;;;;;0.00;0.00;;;;;17.05;100.00;97838.25;6374375;22;68817;-87
2023/10/20 18:22:58;;;;;;;;;0.00;0.00;;;;;16.93;100.00;97829.81;6320826;22;45416;-87
2023/10/20 18:25:44;;;;;;;;;0.00;0.00;;;;;16.86;100.00;97826.16;6348131;22;45541;-87